sensor_id;sensor_type;location;lat;lon;timestamp;pressure;altitude;pressure_sealevel;temperature;humidity
77149;BME280;66122;47.130;16.844;2023-04-25T00:03:25;98963.81;;;9.68;92.79
77149;BME280;66122;47.130;16.844;2023-04-25T00:13:28;98953.47;;;9.37;91.88
77149;BME280;66122;47.130;16.844;2023-04-25T00:23:30;98953.44;;;9.51;93.11
77149;BME280;66122;47.130;16.844;2023-04-25T00:33:33;98949.13;;;9.36;93.50
77149;BME280;66122;47.130;16.844;2023-04-25T00:43:36;98966.19;;;9.59;90.83
77149;BME280;66122;47.130;16.844;2023-04-25T00:53:39;98950.06;;;9.49;91.85
77149;BME280;66122;47.130;16.844;2023-04-25T01:03:46;98951.41;;;9.42;93.38
77149;BME280;66122;47.130;16.844;2023-04-25T01:13:49;98946.47;;;9.50;93.70
77149;BME280;66122;47.130;16.844;2023-04-25T01:23:53;98954.13;;;9.26;94.93
77149;BME280;66122;47.130;16.844;2023-04-25T01:33:56;98959.88;;;9.33;95.88
77149;BME280;66122;47.130;16.844;2023-04-25T01:43:59;98956.22;;;9.35;96.26
77149;BME280;66122;47.130;16.844;2023-04-25T01:54:02;98951.56;;;9.25;96.17
77149;BME280;66122;47.130;16.844;2023-04-25T02:04:05;98942.25;;;9.19;99.48
77149;BME280;66122;47.130;16.844;2023-04-25T02:14:11;98955.25;;;9.08;100.00
77149;BME280;66122;47.130;16.844;2023-04-25T02:24:23;98952.56;;;8.80;100.00
77149;BME280;66122;47.130;16.844;2023-04-25T02:34:25;98952.59;;;8.94;100.00
77149;BME280;66122;47.130;16.844;2023-04-25T02:44:29;98949.22;;;9.06;100.00
77149;BME280;66122;47.130;16.844;2023-04-25T02:54:31;98938.75;;;9.19;99.99
77149;BME280;66122;47.130;16.844;2023-04-25T03:04:35;98940.16;;;9.24;100.00
77149;BME280;66122;47.130;16.844;2023-04-25T03:14:37;98945.72;;;9.06;100.00
77149;BME280;66122;47.130;16.844;2023-04-25T03:24:40;98949.19;;;8.78;100.00
77149;BME280;66122;47.130;16.844;2023-04-25T03:34:43;98957.69;;;8.83;100.00
77149;BME280;66122;47.130;16.844;2023-04-25T03:44:46;98962.19;;;8.81;100.00
77149;BME280;66122;47.130;16.844;2023-04-25T03:54:48;98960.16;;;8.86;100.00
77149;BME280;66122;47.130;16.844;2023-04-25T04:04:54;98970.19;;;8.79;100.00
77149;BME280;66122;47.130;16.844;2023-04-25T04:14:59;98982.44;;;8.05;100.00
77149;BME280;66122;47.130;16.844;2023-04-25T04:25:02;98981.88;;;8.30;100.00
77149;BME280;66122;47.130;16.844;2023-04-25T04:35:31;98996.75;;;8.32;100.00
77149;BME280;66122;47.130;16.844;2023-04-25T04:45:34;99002.16;;;8.29;100.00
77149;BME280;66122;47.130;16.844;2023-04-25T04:55:55;99019.00;;;8.58;92.64
77149;BME280;66122;47.130;16.844;2023-04-25T05:06:07;99009.31;;;9.02;85.36
77149;BME280;66122;47.130;16.844;2023-04-25T05:16:29;99000.56;;;9.30;79.95
77149;BME280;66122;47.130;16.844;2023-04-25T05:26:53;99014.41;;;9.50;77.52
77149;BME280;66122;47.130;16.844;2023-04-25T05:37:24;99001.91;;;9.52;78.72
77149;BME280;66122;47.130;16.844;2023-04-25T05:47:36;99001.16;;;9.64;77.02
77149;BME280;66122;47.130;16.844;2023-04-25T05:57:51;99001.88;;;9.80;75.96
77149;BME280;66122;47.130;16.844;2023-04-25T06:07:54;98994.28;;;10.70;69.92
77149;BME280;66122;47.130;16.844;2023-04-25T06:17:57;98991.16;;;11.66;65.40
77149;BME280;66122;47.130;16.844;2023-04-25T06:28:00;98985.00;;;12.15;61.55
77149;BME280;66122;47.130;16.844;2023-04-25T06:38:03;98984.75;;;13.01;59.98
77149;BME280;66122;47.130;16.844;2023-04-25T06:48:08;98959.94;;;13.24;57.88
77149;BME280;66122;47.130;16.844;2023-04-25T06:58:11;98974.00;;;13.59;59.08
77149;BME280;66122;47.130;16.844;2023-04-25T07:08:37;98970.84;;;14.31;55.19
77149;BME280;66122;47.130;16.844;2023-04-25T07:18:40;98948.94;;;14.27;55.79
77149;BME280;66122;47.130;16.844;2023-04-25T07:28:44;98957.81;;;14.60;55.08
77149;BME280;66122;47.130;16.844;2023-04-25T07:38:47;98942.78;;;14.91;54.57
77149;BME280;66122;47.130;16.844;2023-04-25T07:48:50;98932.00;;;15.02;52.74
77149;BME280;66122;47.130;16.844;2023-04-25T07:58:53;98930.56;;;15.18;54.68
77149;BME280;66122;47.130;16.844;2023-04-25T08:08:57;98926.38;;;15.77;45.64
77149;BME280;66122;47.130;16.844;2023-04-25T08:19:08;98918.31;;;16.46;50.13
77149;BME280;66122;47.130;16.844;2023-04-25T08:29:10;98898.31;;;16.59;48.56
77149;BME280;66122;47.130;16.844;2023-04-25T08:39:16;98901.25;;;16.95;49.14
77149;BME280;66122;47.130;16.844;2023-04-25T08:49:34;98915.19;;;17.54;47.47
77149;BME280;66122;47.130;16.844;2023-04-25T08:59:39;98934.84;;;17.36;48.43
77149;BME280;66122;47.130;16.844;2023-04-25T09:09:42;98932.78;;;17.94;44.39
77149;BME280;66122;47.130;16.844;2023-04-25T09:19:44;98918.72;;;18.10;45.79
77149;BME280;66122;47.130;16.844;2023-04-25T09:29:59;98921.06;;;18.40;45.55
77149;BME280;66122;47.130;16.844;2023-04-25T09:40:30;98923.66;;;17.50;47.40
77149;BME280;66122;47.130;16.844;2023-04-25T09:50:42;98911.97;;;16.27;45.93
77149;BME280;66122;47.130;16.844;2023-04-25T10:00:47;98913.25;;;16.71;45.74
77149;BME280;66122;47.130;16.844;2023-04-25T10:11:06;98898.28;;;15.92;42.90
77149;BME280;66122;47.130;16.844;2023-04-25T10:21:12;98907.97;;;15.93;45.40
77149;BME280;66122;47.130;16.844;2023-04-25T10:31:15;98913.16;;;14.73;50.67
77149;BME280;66122;47.130;16.844;2023-04-25T10:41:19;98931.63;;;13.45;62.56
77149;BME280;66122;47.130;16.844;2023-04-25T10:51:24;98940.94;;;11.63;76.84
77149;BME280;66122;47.130;16.844;2023-04-25T11:01:44;98915.88;;;13.09;75.39
77149;BME280;66122;47.130;16.844;2023-04-25T11:11:59;98902.63;;;15.22;61.45
77149;BME280;66122;47.130;16.844;2023-04-25T11:22:03;98885.97;;;16.77;53.79
77149;BME280;66122;47.130;16.844;2023-04-25T11:32:06;98900.03;;;15.72;60.71
77149;BME280;66122;47.130;16.844;2023-04-25T11:42:09;98869.38;;;17.11;55.36
77149;BME280;66122;47.130;16.844;2023-04-25T11:52:15;98853.44;;;18.19;53.30
77149;BME280;66122;47.130;16.844;2023-04-25T12:02:25;98825.53;;;18.65;40.25
77149;BME280;66122;47.130;16.844;2023-04-25T12:12:32;98842.72;;;19.32;40.35
77149;BME280;66122;47.130;16.844;2023-04-25T12:22:35;98858.41;;;17.96;42.64
77149;BME280;66122;47.130;16.844;2023-04-25T12:32:38;98872.44;;;16.12;51.41
77149;BME280;66122;47.130;16.844;2023-04-25T12:42:41;98862.88;;;13.73;45.88
77149;BME280;66122;47.130;16.844;2023-04-25T12:52:43;98844.13;;;12.85;54.75
77149;BME280;66122;47.130;16.844;2023-04-25T13:02:46;98847.53;;;13.43;57.90
77149;BME280;66122;47.130;16.844;2023-04-25T13:12:49;98855.75;;;18.14;45.33
77149;BME280;66122;47.130;16.844;2023-04-25T13:22:52;98840.31;;;18.95;37.40
77149;BME280;66122;47.130;16.844;2023-04-25T13:32:55;98823.63;;;18.40;42.76
77149;BME280;66122;47.130;16.844;2023-04-25T13:43:05;98832.41;;;19.19;37.71
77149;BME280;66122;47.130;16.844;2023-04-25T13:53:08;98822.72;;;20.35;36.19
77149;BME280;66122;47.130;16.844;2023-04-25T14:03:11;98817.06;;;19.79;38.29
77149;BME280;66122;47.130;16.844;2023-04-25T14:13:14;98833.69;;;16.83;47.38
77149;BME280;66122;47.130;16.844;2023-04-25T14:23:17;98854.41;;;15.14;54.29
77149;BME280;66122;47.130;16.844;2023-04-25T14:33:20;98933.09;;;14.26;56.56
77149;BME280;66122;47.130;16.844;2023-04-25T14:43:22;98903.81;;;11.51;82.10
77149;BME280;66122;47.130;16.844;2023-04-25T14:53:25;98895.91;;;14.24;75.42
77149;BME280;66122;47.130;16.844;2023-04-25T15:03:29;98900.84;;;14.61;73.09
77149;BME280;66122;47.130;16.844;2023-04-25T15:13:32;98884.69;;;15.55;67.60
77149;BME280;66122;47.130;16.844;2023-04-25T15:23:37;98874.13;;;16.42;62.43
77149;BME280;66122;47.130;16.844;2023-04-25T15:33:40;98860.56;;;15.45;64.59
77149;BME280;66122;47.130;16.844;2023-04-25T15:43:43;98865.41;;;14.06;69.16
77149;BME280;66122;47.130;16.844;2023-04-25T15:53:46;98834.44;;;13.62;72.75
77149;BME280;66122;47.130;16.844;2023-04-25T16:03:49;98861.22;;;13.38;76.06
77149;BME280;66122;47.130;16.844;2023-04-25T16:13:54;98870.41;;;13.34;74.54
77149;BME280;66122;47.130;16.844;2023-04-25T16:23:56;98866.59;;;13.81;71.23
77149;BME280;66122;47.130;16.844;2023-04-25T16:33:59;98879.25;;;13.46;72.83
77149;BME280;66122;47.130;16.844;2023-04-25T16:44:01;98888.47;;;13.31;73.25
77149;BME280;66122;47.130;16.844;2023-04-25T16:54:04;98900.25;;;13.04;74.39
77149;BME280;66122;47.130;16.844;2023-04-25T17:04:07;98911.78;;;12.59;75.71
77149;BME280;66122;47.130;16.844;2023-04-25T17:14:09;98918.00;;;12.46;76.00
77149;BME280;66122;47.130;16.844;2023-04-25T17:24:12;98930.19;;;12.14;74.26
77149;BME280;66122;47.130;16.844;2023-04-25T17:34:17;98946.88;;;11.80;71.43
77149;BME280;66122;47.130;16.844;2023-04-25T17:44:20;98955.94;;;11.26;72.40
77149;BME280;66122;47.130;16.844;2023-04-25T17:54:22;98971.28;;;10.83;74.09
77149;BME280;66122;47.130;16.844;2023-04-25T18:04:25;98998.59;;;10.32;78.25
77149;BME280;66122;47.130;16.844;2023-04-25T18:14:28;99016.41;;;10.01;78.92
77149;BME280;66122;47.130;16.844;2023-04-25T18:24:31;99022.31;;;9.92;78.03
77149;BME280;66122;47.130;16.844;2023-04-25T18:34:34;99045.81;;;9.97;76.33
77149;BME280;66122;47.130;16.844;2023-04-25T18:44:37;99060.47;;;9.88;74.35
77149;BME280;66122;47.130;16.844;2023-04-25T18:54:43;99086.94;;;9.74;73.25
77149;BME280;66122;47.130;16.844;2023-04-25T19:04:47;99107.91;;;9.49;74.12
77149;BME280;66122;47.130;16.844;2023-04-25T19:14:50;99094.44;;;9.37;75.08
77149;BME280;66122;47.130;16.844;2023-04-25T19:24:53;99117.06;;;9.13;76.55
77149;BME280;66122;47.130;16.844;2023-04-25T19:35:11;99130.41;;;8.96;77.61
77149;BME280;66122;47.130;16.844;2023-04-25T19:45:15;99143.91;;;8.76;79.04
77149;BME280;66122;47.130;16.844;2023-04-25T19:55:18;99154.09;;;8.50;78.51
77149;BME280;66122;47.130;16.844;2023-04-25T20:05:20;99171.44;;;8.56;77.19
77149;BME280;66122;47.130;16.844;2023-04-25T20:15:23;99170.56;;;8.55;76.79
77149;BME280;66122;47.130;16.844;2023-04-25T20:25:26;99169.56;;;8.42;78.74
77149;BME280;66122;47.130;16.844;2023-04-25T20:35:30;99192.19;;;8.13;80.10
77149;BME280;66122;47.130;16.844;2023-04-25T20:45:33;99202.63;;;7.99;80.50
77149;BME280;66122;47.130;16.844;2023-04-25T20:55:37;99207.81;;;8.01;79.43
77149;BME280;66122;47.130;16.844;2023-04-25T21:05:40;99219.31;;;7.82;80.24
77149;BME280;66122;47.130;16.844;2023-04-25T21:15:43;99239.09;;;7.91;80.70
77149;BME280;66122;47.130;16.844;2023-04-25T21:25:45;99227.31;;;7.81;80.59
77149;BME280;66122;47.130;16.844;2023-04-25T21:35:50;99250.81;;;7.85;79.78
77149;BME280;66122;47.130;16.844;2023-04-25T21:45:53;99253.91;;;7.94;79.99
77149;BME280;66122;47.130;16.844;2023-04-25T21:56:16;99265.16;;;7.97;79.43
77149;BME280;66122;47.130;16.844;2023-04-25T22:06:26;99294.41;;;7.93;79.90
77149;BME280;66122;47.130;16.844;2023-04-25T22:16:30;99299.06;;;8.05;78.15
77149;BME280;66122;47.130;16.844;2023-04-25T22:26:32;99314.44;;;7.97;78.76
77149;BME280;66122;47.130;16.844;2023-04-25T22:36:35;99325.69;;;7.83;78.72
77149;BME280;66122;47.130;16.844;2023-04-25T22:46:38;99329.31;;;7.63;80.09
77149;BME280;66122;47.130;16.844;2023-04-25T22:56:40;99337.31;;;7.43;81.34
77149;BME280;66122;47.130;16.844;2023-04-25T23:06:44;99337.03;;;7.49;81.60
77149;BME280;66122;47.130;16.844;2023-04-25T23:16:46;99352.63;;;7.35;82.80
77149;BME280;66122;47.130;16.844;2023-04-25T23:26:49;99356.00;;;7.38;81.23
77149;BME280;66122;47.130;16.844;2023-04-25T23:36:52;99368.44;;;7.35;81.92
77149;BME280;66122;47.130;16.844;2023-04-25T23:46:54;99373.38;;;7.05;83.39
77149;BME280;66122;47.130;16.844;2023-04-25T23:56:57;99382.63;;;7.14;83.26
